Harbor Princess — WCX8036 — position and weather

sailwx.info

Track history (hours):
 
Tides and Currents Weather Stations Pressure Air Temp Water Temp Dewpoint Dewpoint Depression Visibility Wind Speed Wind Dir Waves Ship Positions

Harbor Princess

Owner: Golden Gate Scenic Steamship Corp, SAN FRANCISCO, CA. More information available from US FCC via Universal Licensing System and Coast Guard Vessel Documentation Center.

Last reported at 2017-Nov-07 18:34 UTC. Time now 2017-Nov-18 23:49 UTC.
Position N 37°49' W 122°25'.
Warning: this ship's position is 11 days out of date.

Length 25 m; draft 2.8 m.

Type: Passenger vessel. MMSI: 366975750.

Date/timePositionNaut miles runAvg speedWind from/ knotsBaromVisibWave heightAir tempDewpointWater temp
2017-Nov-07 18:34N 37°49' W 122°25'0 0.0
2017-Nov-07 18:28N 37°49' W 122°25'  
2017-Nov-01 19:40N 37°49' W 122°25'0 1.6
2017-Nov-01 19:31N 37°49' W 122°25'1 2.1
2017-Nov-01 19:01N 37°50' W 122°25'2 3.5
2017-Nov-01 18:31N 37°49' W 122°27'2 0.1
2017-Nov-01 01:05N 37°49' W 122°25'0 0.0
2017-Nov-01 01:00N 37°49' W 122°25'2 4.3
2017-Nov-01 00:30N 37°49' W 122°27'2 4.3
2017-Nov-01 00:00N 37°49' W 122°25'1 1.4
2017-Oct-31 23:30N 37°49' W 122°24'2 4.9
2017-Oct-31 23:00N 37°49' W 122°28'2 4.2
2017-Oct-31 22:31N 37°49' W 122°25'2 4.0
2017-Oct-31 22:01N 37°49' W 122°27'2 4.0
2017-Oct-31 21:30N 37°49' W 122°25'0 0.9
2017-Oct-31 21:00N 37°49' W 122°24'3 6.9
2017-Oct-31 20:31N 37°49' W 122°29'3 6.1
2017-Oct-31 20:00N 37°49' W 122°25'0 0.0
2017-Oct-31 19:30N 37°49' W 122°25'1 1.5
2017-Oct-31 19:00N 37°49' W 122°25'2 4.6
2017-Oct-31 18:30N 37°49' W 122°28'2 4.5
2017-Oct-31 18:00N 37°49' W 122°25'2 4.3
2017-Oct-31 17:30N 37°49' W 122°27'2 4.3
2017-Oct-31 17:00N 37°49' W 122°25'0 0.0
2017-Oct-31 01:01N 37°49' W 122°25'0 0.0
2017-Oct-31 01:00N 37°49' W 122°25'2 4.3
2017-Oct-31 00:30N 37°49' W 122°27'2 4.3
2017-Oct-31 00:00N 37°49' W 122°25'1 1.4
2017-Oct-30 23:30N 37°49' W 122°25'2 3.9
2017-Oct-30 23:00N 37°49' W 122°27'2 3.7
2017-Oct-30 22:30N 37°49' W 122°25'3 5.1
2017-Oct-30 22:00N 37°49' W 122°28'3 5.1
2017-Oct-30 21:30N 37°49' W 122°25'1 1.3
2017-Oct-30 21:00N 37°49' W 122°25'3 5.1
2017-Oct-30 20:30N 37°49' W 122°28'2 4.6
2017-Oct-30 20:00N 37°49' W 122°25'0 0.0
2017-Oct-30 19:30N 37°49' W 122°25'1 1.9
2017-Oct-30 19:00N 37°50' W 122°25'2 3.9
2017-Oct-30 18:30N 37°49' W 122°27'2 3.8
2017-Oct-30 18:00N 37°49' W 122°25'2 4.6
2017-Oct-30 17:30N 37°50' W 122°28'2 4.6
2017-Oct-30 17:00N 37°49' W 122°25'0 0.0
2017-Oct-30 01:03N 37°49' W 122°25'0 0.0
2017-Oct-30 01:00N 37°49' W 122°25'2 4.9
2017-Oct-30 00:30N 37°49' W 122°28'2 4.8
2017-Oct-30 00:00N 37°49' W 122°25'1 1.7
2017-Oct-29 23:30N 37°49' W 122°25'2 3.7
2017-Oct-29 23:00N 37°49' W 122°27'2 3.6
2017-Oct-29 22:30N 37°49' W 122°25'2 4.7
2017-Oct-29 22:00N 37°49' W 122°28'2 4.7
2017-Oct-29 21:30N 37°49' W 122°25'0 0.6
2017-Oct-29 21:00N 37°49' W 122°25'3 6.2
2017-Oct-29 20:30N 37°49' W 122°28'3 5.8
2017-Oct-29 20:00N 37°49' W 122°25'0 0.0
2017-Oct-29 19:30N 37°49' W 122°25'1 1.8
2017-Oct-29 19:00N 37°49' W 122°25'2 4.4
2017-Oct-29 18:30N 37°49' W 122°28'2 4.3
2017-Oct-29 18:00N 37°49' W 122°25'3 5.5
2017-Oct-29 17:30N 37°49' W 122°28'3 5.5
2017-Oct-29 17:00N 37°49' W 122°25'1 0.1
2017-Oct-28 19:01N 37°50' W 122°25'  
Track history (hours):
 
Tides and Currents Weather Stations Pressure Air Temp Water Temp Dewpoint Dewpoint Depression Visibility Wind Speed Wind Dir Waves Ship Positions

Harbor Princess

Owner: Golden Gate Scenic Steamship Corp, SAN FRANCISCO, CA. More information available from US FCC via Universal Licensing System and Coast Guard Vessel Documentation Center.

Last reported at 2017-Nov-07 18:34 UTC. Time now 2017-Nov-18 23:49 UTC.
Position N 37°49' W 122°25'.
Warning: this ship's position is 11 days out of date.

Length 25 m; draft 2.8 m.

Type: Passenger vessel. MMSI: 366975750.

Date/timePositionNaut miles runAvg speedWind from/ knotsBaromVisibWave heightAir tempDewpointWater temp
2017-Nov-07 18:34N 37°49' W 122°25'0 0.0
2017-Nov-07 18:28N 37°49' W 122°25'  
2017-Nov-01 19:40N 37°49' W 122°25'0 1.6
2017-Nov-01 19:31N 37°49' W 122°25'1 2.1
2017-Nov-01 19:01N 37°50' W 122°25'2 3.5
2017-Nov-01 18:31N 37°49' W 122°27'2 0.1
2017-Nov-01 01:05N 37°49' W 122°25'0 0.0
2017-Nov-01 01:00N 37°49' W 122°25'2 4.3
2017-Nov-01 00:30N 37°49' W 122°27'2 4.3
2017-Nov-01 00:00N 37°49' W 122°25'1 1.4
2017-Oct-31 23:30N 37°49' W 122°24'2 4.9
2017-Oct-31 23:00N 37°49' W 122°28'2 4.2
2017-Oct-31 22:31N 37°49' W 122°25'2 4.0
2017-Oct-31 22:01N 37°49' W 122°27'2 4.0
2017-Oct-31 21:30N 37°49' W 122°25'0 0.9
2017-Oct-31 21:00N 37°49' W 122°24'3 6.9
2017-Oct-31 20:31N 37°49' W 122°29'3 6.1
2017-Oct-31 20:00N 37°49' W 122°25'0 0.0
2017-Oct-31 19:30N 37°49' W 122°25'1 1.5
2017-Oct-31 19:00N 37°49' W 122°25'2 4.6
2017-Oct-31 18:30N 37°49' W 122°28'2 4.5
2017-Oct-31 18:00N 37°49' W 122°25'2 4.3
2017-Oct-31 17:30N 37°49' W 122°27'2 4.3
2017-Oct-31 17:00N 37°49' W 122°25'0 0.0
2017-Oct-31 01:01N 37°49' W 122°25'0 0.0
2017-Oct-31 01:00N 37°49' W 122°25'2 4.3
2017-Oct-31 00:30N 37°49' W 122°27'2 4.3
2017-Oct-31 00:00N 37°49' W 122°25'1 1.4
2017-Oct-30 23:30N 37°49' W 122°25'2 3.9
2017-Oct-30 23:00N 37°49' W 122°27'2 3.7
2017-Oct-30 22:30N 37°49' W 122°25'3 5.1
2017-Oct-30 22:00N 37°49' W 122°28'3 5.1
2017-Oct-30 21:30N 37°49' W 122°25'1 1.3
2017-Oct-30 21:00N 37°49' W 122°25'3 5.1
2017-Oct-30 20:30N 37°49' W 122°28'2 4.6
2017-Oct-30 20:00N 37°49' W 122°25'0 0.0
2017-Oct-30 19:30N 37°49' W 122°25'1 1.9
2017-Oct-30 19:00N 37°50' W 122°25'2 3.9
2017-Oct-30 18:30N 37°49' W 122°27'2 3.8
2017-Oct-30 18:00N 37°49' W 122°25'2 4.6
2017-Oct-30 17:30N 37°50' W 122°28'2 4.6
2017-Oct-30 17:00N 37°49' W 122°25'0 0.0
2017-Oct-30 01:03N 37°49' W 122°25'0 0.0
2017-Oct-30 01:00N 37°49' W 122°25'2 4.9
2017-Oct-30 00:30N 37°49' W 122°28'2 4.8
2017-Oct-30 00:00N 37°49' W 122°25'1 1.7
2017-Oct-29 23:30N 37°49' W 122°25'2 3.7
2017-Oct-29 23:00N 37°49' W 122°27'2 3.6
2017-Oct-29 22:30N 37°49' W 122°25'2 4.7
2017-Oct-29 22:00N 37°49' W 122°28'2 4.7
2017-Oct-29 21:30N 37°49' W 122°25'0 0.6
2017-Oct-29 21:00N 37°49' W 122°25'3 6.2
2017-Oct-29 20:30N 37°49' W 122°28'3 5.8
2017-Oct-29 20:00N 37°49' W 122°25'0 0.0
2017-Oct-29 19:30N 37°49' W 122°25'1 1.8
2017-Oct-29 19:00N 37°49' W 122°25'2 4.4
2017-Oct-29 18:30N 37°49' W 122°28'2 4.3
2017-Oct-29 18:00N 37°49' W 122°25'3 5.5
2017-Oct-29 17:30N 37°49' W 122°28'3 5.5
2017-Oct-29 17:00N 37°49' W 122°25'1 0.1
2017-Oct-28 19:01N 37°50' W 122°25'  

Dump ship's entire track history